Time;durP1;ratioP1;P1;durP2;ratioP2;P2;SDS_P1;SDS_P2;PMS_P1;PMS_P2;Temp;Humidity;BMP_temperature;BMP_pressure;BME280_temperature;BME280_humidity;BME280_pressure;Samples;Min_cycle;Max_cycle;Signal;HPM_P1;HPM_P2
2021/01/31 00:01:34;;;;;;;9.65;6.00;;;-3275.20;75.70;;;;;;5090842;28;20036;-67
2021/01/31 00:04:00;;;;;;;10.52;6.18;;;-3275.20;75.40;;;;;;5090693;28;20019;-67
2021/01/31 00:06:25;;;;;;;10.20;6.35;;;-3275.10;74.10;;;;;;5090515;28;20024;-67
2021/01/31 00:08:51;;;;;;;8.98;5.95;;;-3275.20;74.50;;;;;;5090731;28;20024;-66
2021/01/31 00:11:17;;;;;;;10.73;5.97;;;-3275.10;74.70;;;;;;5090600;28;20090;-66
2021/01/31 00:13:44;;;;;;;10.10;5.90;;;-3275.00;74.80;;;;;;5090932;28;20024;-67
2021/01/31 00:16:10;;;;;;;11.10;6.13;;;-3275.00;75.40;;;;;;5091357;28;20020;-66
2021/01/31 00:18:36;;;;;;;11.02;6.15;;;-3275.00;75.70;;;;;;5091196;28;20036;-66
2021/01/31 00:21:02;;;;;;;11.00;6.88;;;-3274.90;75.80;;;;;;5091370;28;20074;-66
2021/01/31 00:23:27;;;;;;;12.75;6.75;;;-3274.90;76.30;;;;;;5091421;28;20078;-66
2021/01/31 00:25:53;;;;;;;12.38;7.05;;;-3274.80;76.50;;;;;;5091004;28;20038;-65
2021/01/31 00:28:21;;;;;;;13.13;7.78;;;-3274.70;77.10;;;;;;5078609;28;20058;-66
2021/01/31 00:30:48;;;;;;;12.07;7.20;;;-3274.70;77.30;;;;;;5091275;28;20020;-67
2021/01/31 00:33:16;;;;;;;11.63;6.80;;;-3274.70;78.20;;;;;;5091311;28;20475;-66
2021/01/31 00:35:42;;;;;;;8.85;6.05;;;-3274.80;78.90;;;;;;5056505;28;20498;-65
2021/01/31 00:38:09;;;;;;;11.00;7.32;;;-3274.70;78.40;;;;;;5075920;28;20035;-66
2021/01/31 00:40:35;;;;;;;12.80;7.60;;;-3274.70;78.50;;;;;;5091161;28;20366;-66
2021/01/31 00:43:04;;;;;;;14.40;7.85;;;-3274.70;78.50;;;;;;5091039;28;20027;-65
2021/01/31 00:45:30;;;;;;;13.00;7.43;;;-3274.70;79.50;;;;;;5091252;28;20397;-65
2021/01/31 00:47:56;;;;;;;14.73;7.93;;;-3274.80;80.40;;;;;;5088146;28;20024;-66
2021/01/31 00:50:34;;;;;;;13.05;7.13;;;-3274.70;78.20;;;;;;5091134;28;20024;-65
2021/01/31 00:53:00;;;;;;;12.68;8.48;;;-3274.70;78.00;;;;;;5091311;28;20035;-66
2021/01/31 00:55:26;;;;;;;13.60;7.65;;;-3274.80;79.10;;;;;;5090944;28;20389;-66
2021/01/31 00:57:51;;;;;;;15.30;8.88;;;-3274.70;79.40;;;;;;5090729;28;20018;-66
2021/01/31 01:00:38;;;;;;;15.50;8.88;;;-3274.60;79.90;;;;;;5091088;28;20020;-66
2021/01/31 01:03:06;;;;;;;13.60;7.93;;;-3274.50;81.00;;;;;;5091418;28;20032;-64
2021/01/31 01:05:32;;;;;;;13.23;8.23;;;-3274.50;80.50;;;;;;5091004;28;20035;-66
2021/01/31 01:07:59;;;;;;;16.38;8.32;;;-3274.30;81.10;;;;;;5090932;28;20026;-66
2021/01/31 01:10:28;;;;;;;15.55;8.68;;;-3274.20;82.20;;;;;;5084290;28;20030;-66
2021/01/31 01:12:56;;;;;;;17.05;9.30;;;-3274.20;82.60;;;;;;5091181;28;20067;-66
2021/01/31 01:15:25;;;;;;;15.13;8.60;;;-3274.10;81.80;;;;;;5091093;28;20032;-66
2021/01/31 01:17:50;;;;;;;18.65;9.52;;;-3274.00;82.60;;;;;;5090754;28;20359;-66
2021/01/31 01:20:16;;;;;;;18.85;9.52;;;-3274.00;83.10;;;;;;5091246;28;20038;-66
2021/01/31 01:22:44;;;;;;;15.02;8.88;;;-3274.10;83.30;;;;;;5091401;28;20023;-66
2021/01/31 01:25:12;;;;;;;19.55;9.77;;;-3274.10;83.60;;;;;;5091559;28;20035;-66
2021/01/31 01:27:38;;;;;;;15.65;8.50;;;-3274.10;83.60;;;;;;5090902;28;20096;-65
2021/01/31 01:30:10;;;;;;;15.52;8.88;;;-3274.10;83.80;;;;;;5076106;28;20143;-65
2021/01/31 01:32:37;;;;;;;17.75;9.93;;;-3274.10;84.00;;;;;;5091258;28;20252;-66
2021/01/31 01:35:07;;;;;;;19.25;10.40;;;-3274.10;83.90;;;;;;5091112;28;20012;-66
2021/01/31 01:37:32;;;;;;;18.67;10.10;;;-3274.10;84.10;;;;;;5076408;28;20036;-66
2021/01/31 01:39:58;;;;;;;19.35;9.30;;;-3274.20;83.80;;;;;;5092079;28;20031;-67
2021/01/31 01:42:24;;;;;;;17.08;10.20;;;-3274.20;83.60;;;;;;5095291;28;20032;-66
2021/01/31 01:44:49;;;;;;;10.57;5.47;;;-3274.20;83.10;;;;;;5095127;28;20079;-67
2021/01/31 01:47:20;;;;;;;12.35;7.40;;;-3274.30;77.60;;;;;;5088912;28;20028;-68
2021/01/31 01:49:48;;;;;;;14.32;8.63;;;-3274.40;78.80;;;;;;5076697;28;20474;-66
2021/01/31 01:52:22;;;;;;;14.30;8.20;;;-3274.40;79.80;;;;;;5094842;28;20024;-67
2021/01/31 01:54:56;;;;;;;13.70;7.68;;;-3274.40;79.80;;;;;;5085375;28;20458;-67
2021/01/31 01:57:29;;;;;;;12.27;7.38;;;-3274.40;80.10;;;;;;5094324;28;20024;-67
2021/01/31 01:59:56;;;;;;;14.57;8.27;;;-3274.40;80.60;;;;;;5094465;28;20070;-66
2021/01/31 02:02:32;;;;;;;14.73;8.40;;;-3274.40;81.30;;;;;;5094455;28;20036;-65
2021/01/31 02:05:07;;;;;;;15.13;8.65;;;-3274.40;81.30;;;;;;5082526;28;20118;-65
2021/01/31 02:07:34;;;;;;;14.70;8.77;;;-3274.40;81.70;;;;;;5093739;28;20089;-66
2021/01/31 02:10:00;;;;;;;15.90;8.38;;;-3274.40;82.10;;;;;;5094087;28;20032;-66
2021/01/31 02:12:29;;;;;;;15.20;8.45;;;-3274.40;81.60;;;;;;5081595;28;20081;-67
2021/01/31 02:14:57;;;;;;;12.90;7.22;;;-3274.50;81.70;;;;;;5093961;28;20032;-65
2021/01/31 02:18:00;;;;;;;18.23;8.45;;;-3274.50;81.40;;;;;;5093472;28;20028;-66
2021/01/31 02:20:35;;;;;;;17.25;8.93;;;-3274.50;81.40;;;;;;5031367;28;20386;-66
2021/01/31 02:23:12;;;;;;;15.65;8.60;;;-3274.70;80.90;;;;;;5093638;28;20036;-66
2021/01/31 02:25:59;;;;;;;15.73;8.80;;;-3274.70;80.30;;;;;;5093919;28;20049;-65
2021/01/31 02:28:33;;;;;;;16.13;9.38;;;-3274.60;80.40;;;;;;5093519;28;20032;-66
2021/01/31 02:31:11;;;;;;;15.32;9.38;;;-3274.60;80.60;;;;;;5093401;28;20032;-67
2021/01/31 02:34:18;;;;;;;16.08;9.10;;;-3274.60;80.70;;;;;;5088682;28;20051;-65
2021/01/31 02:36:52;;;;;;;15.45;8.77;;;-3274.60;80.60;;;;;;5010784;28;20534;-67
2021/01/31 02:39:24;;;;;;;14.77;9.20;;;-3274.60;80.90;;;;;;5077481;28;20062;-66
2021/01/31 02:42:06;;;;;;;14.65;7.93;;;-3274.70;81.70;;;;;;5059244;28;20032;-66
2021/01/31 02:44:35;;;;;;;15.13;8.68;;;-3274.80;81.90;;;;;;5081708;28;20422;-65
2021/01/31 02:47:03;;;;;;;15.13;9.27;;;-3274.80;81.90;;;;;;5092678;28;20436;-65
2021/01/31 02:49:34;;;;;;;16.67;8.98;;;-3274.90;82.00;;;;;;5089589;28;20062;-66
2021/01/31 02:52:09;;;;;;;;;;;-3274.90;82.20;;;;;;5077506;28;20024;-66
2021/01/31 02:54:59;;;;;;;16.38;9.65;;;-3274.80;81.50;;;;;;5084905;28;19907;-66
2021/01/31 02:57:34;;;;;;;15.63;9.05;;;-3274.90;80.90;;;;;;5092943;28;20524;-65
2021/01/31 03:00:12;;;;;;;16.73;9.38;;;-3274.90;80.40;;;;;;5093327;28;20373;-66
2021/01/31 03:02:45;;;;;;;14.18;8.43;;;-3274.80;80.30;;;;;;5092914;28;20047;-66
2021/01/31 03:05:22;;;;;;;17.30;9.32;;;-3274.70;79.80;;;;;;5093097;28;20024;-66
2021/01/31 03:08:01;;;;;;;17.08;9.48;;;-3274.70;80.20;;;;;;5076387;28;20016;-66
2021/01/31 03:10:41;;;;;;;16.02;8.35;;;-3274.80;80.00;;;;;;5092864;28;20084;-65
2021/01/31 03:13:18;;;;;;;16.35;8.57;;;-3274.70;80.20;;;;;;5092619;28;20024;-65
2021/01/31 03:15:52;;;;;;;13.65;8.23;;;-3274.80;79.30;;;;;;5092329;28;20024;-67
2021/01/31 03:18:23;;;;;;;14.93;7.68;;;-3274.80;78.00;;;;;;5078562;28;20020;-67
2021/01/31 03:21:16;;;;;;;13.80;8.00;;;-3274.80;77.70;;;;;;5092705;28;20016;-66
2021/01/31 03:24:09;;;;;;;13.90;7.85;;;-3274.70;78.00;;;;;;5090014;28;20093;-66
2021/01/31 03:26:41;;;;;;;16.55;8.07;;;-3274.60;77.70;;;;;;5080776;28;20024;-67
2021/01/31 03:29:07;;;;;;;14.40;8.60;;;-3274.60;78.20;;;;;;5092429;28;20023;-67
2021/01/31 03:31:42;;;;;;;14.30;8.23;;;-3274.50;78.30;;;;;;5092311;28;20031;-67
2021/01/31 03:34:11;;;;;;;14.75;8.93;;;-3274.40;79.10;;;;;;5092368;28;20418;-67
2021/01/31 03:36:43;;;;;;;16.27;8.45;;;-3274.40;79.80;;;;;;5091859;28;20039;-67
2021/01/31 03:39:10;;;;;;;16.13;8.77;;;-3274.30;80.50;;;;;;5092842;28;20024;-66
2021/01/31 03:41:36;;;;;;;14.93;8.23;;;-3274.20;81.10;;;;;;5092339;28;20028;-65
2021/01/31 03:44:02;;;;;;;14.93;9.23;;;-3274.20;81.50;;;;;;5092317;28;20032;-67
2021/01/31 03:46:36;;;;;;;15.18;8.25;;;-3274.00;81.70;;;;;;5080360;28;20032;-66
2021/01/31 03:49:13;;;;;;;17.40;8.93;;;-3273.90;81.70;;;;;;5080694;28;20035;-66
2021/01/31 03:51:39;;;;;;;15.52;8.15;;;-3273.70;81.80;;;;;;5090378;28;20107;-67
2021/01/31 03:54:07;;;;;;;15.85;8.63;;;-3273.60;81.80;;;;;;5092648;28;20020;-67
2021/01/31 03:56:57;;;;;;;18.58;10.55;;;-3273.60;81.90;;;;;;5092078;28;20034;-66
2021/01/31 03:59:37;;;;;;;18.35;10.43;;;-3273.40;83.10;;;;;;5075079;28;20097;-67
2021/01/31 04:02:08;;;;;;;16.80;10.07;;;-3273.40;83.20;;;;;;5092032;28;20099;-67
2021/01/31 04:04:45;;;;;;;19.48;9.82;;;-3273.30;83.40;;;;;;5091951;28;20097;-67
2021/01/31 04:07:15;;;;;;;22.00;10.20;;;-3273.20;83.60;;;;;;5073721;28;20028;-66
2021/01/31 04:09:43;;;;;;;18.05;10.40;;;-3273.10;83.90;;;;;;5089878;28;20032;-66
2021/01/31 04:12:11;;;;;;;18.90;9.63;;;-3273.00;84.00;;;;;;5092005;28;20381;-66
2021/01/31 04:15:15;;;;;;;22.52;11.68;;;-3273.00;84.70;;;;;;5091609;28;20118;-66
2021/01/31 04:17:46;;;;;;;21.85;11.82;;;-3273.00;84.80;;;;;;5025234;28;20029;-66
2021/01/31 04:20:12;;;;;;;20.23;10.75;;;-3272.90;85.10;;;;;;5059392;28;20561;-67
2021/01/31 04:22:37;;;;;;;23.23;12.63;;;-3272.80;85.30;;;;;;5080754;28;20123;-66
2021/01/31 04:25:03;;;;;;;20.52;11.38;;;-3272.70;85.60;;;;;;5079452;28;20020;-67
2021/01/31 04:27:29;;;;;;;22.20;12.60;;;-3272.60;85.80;;;;;;5091143;28;20110;-66
2021/01/31 04:29:55;;;;;;;20.42;11.07;;;-3272.60;86.30;;;;;;5090256;28;20460;-67
2021/01/31 04:32:20;;;;;;;21.42;11.32;;;-3272.50;86.20;;;;;;5077597;28;20082;-66
2021/01/31 04:34:46;;;;;;;27.23;14.13;;;-3272.40;86.30;;;;;;5091420;28;20108;-68
2021/01/31 04:37:11;;;;;;;22.92;12.05;;;-3272.30;86.40;;;;;;5106282;22;20131;-69
2021/01/31 04:39:37;;;;;;;25.75;12.65;;;-3272.20;86.90;;;;;;5070692;28;20450;-69
2021/01/31 04:42:03;;;;;;;25.65;13.38;;;-3272.10;87.30;;;;;;5055652;28;20027;-68
2021/01/31 04:44:29;;;;;;;24.70;12.85;;;-3272.00;87.20;;;;;;5063913;28;20545;-69
2021/01/31 04:47:13;;;;;;;28.00;12.85;;;-3272.00;87.50;;;;;;5062371;28;20111;-68
2021/01/31 04:50:02;;;;;;;22.95;12.40;;;-3272.00;87.50;;;;;;5054268;28;20440;-69
2021/01/31 04:52:49;;;;;;;27.25;13.20;;;-3272.00;87.70;;;;;;5071198;28;20032;-68
2021/01/31 04:55:51;;;;;;;29.58;12.90;;;-3271.90;87.70;;;;;;5071100;28;20048;-68
2021/01/31 04:58:22;;;;;;;;;;;-3271.80;88.00;;;;;;5045457;28;20116;-68
2021/01/31 05:00:57;;;;;;;29.70;13.88;;;-3271.80;88.10;;;;;;5071186;28;19912;-68
2021/01/31 05:03:24;;;;;;;31.75;14.68;;;-3271.70;88.30;;;;;;5070627;28;20559;-69
2021/01/31 05:06:04;;;;;;;27.70;12.80;;;-3271.70;88.60;;;;;;5084559;28;20446;-68
2021/01/31 05:08:30;;;;;;;26.70;13.18;;;-3271.70;88.40;;;;;;5071323;28;20016;-69
2021/01/31 05:11:08;;;;;;;27.13;13.55;;;-3271.70;88.00;;;;;;5064719;28;20501;-69
2021/01/31 05:14:02;;;;;;;29.25;12.90;;;-3271.60;87.90;;;;;;5075262;28;20107;-69
2021/01/31 05:16:28;;;;;;;28.42;13.52;;;-3271.50;87.80;;;;;;5074811;28;20028;-69
2021/01/31 05:18:57;;;;;;;27.85;13.30;;;-3271.50;88.00;;;;;;5066611;28;20047;-69
2021/01/31 05:21:29;;;;;;;30.95;13.43;;;-3271.30;88.00;;;;;;5040766;28;20053;-69
2021/01/31 05:23:59;;;;;;;28.92;13.10;;;-3271.30;88.20;;;;;;5073289;28;20032;-69
2021/01/31 05:26:26;;;;;;;29.10;13.45;;;-3271.30;88.30;;;;;;5061724;28;20047;-69
2021/01/31 05:28:57;;;;;;;28.33;14.50;;;-3271.30;88.40;;;;;;5074767;28;20025;-69
2021/01/31 05:31:27;;;;;;;31.38;13.93;;;-3271.30;88.80;;;;;;5071042;28;20024;-69
2021/01/31 05:33:56;;;;;;;296.10;106.50;;;-3271.30;88.90;;;;;;5053485;28;20066;-69
2021/01/31 05:36:23;;;;;;;174.18;64.82;;;-3271.30;88.90;;;;;;5082668;28;20027;-69
2021/01/31 05:38:50;;;;;;;97.55;34.88;;;-3271.40;89.50;;;;;;5074643;28;20036;-68
2021/01/31 05:41:33;;;;;;;512.88;211.73;;;-3271.50;89.00;;;;;;5068906;28;20044;-69
2021/01/31 05:44:03;;;;;;;39.65;20.13;;;-3271.60;89.40;;;;;;5060122;28;20021;-68
2021/01/31 05:46:41;;;;;;;30.15;14.48;;;-3271.50;88.60;;;;;;5075411;28;20089;-70
2021/01/31 05:49:29;;;;;;;29.08;13.82;;;-3271.40;88.50;;;;;;5068154;28;20497;-68
2021/01/31 05:51:55;;;;;;;35.28;14.93;;;-3271.20;88.30;;;;;;5057656;28;20024;-68
2021/01/31 05:54:34;;;;;;;28.83;13.98;;;-3271.20;88.40;;;;;;5068015;28;20028;-69
2021/01/31 05:57:00;;;;;;;30.27;15.05;;;-3271.10;88.30;;;;;;5073890;28;20573;-69
2021/01/31 05:59:38;;;;;;;31.98;15.00;;;-3271.00;88.40;;;;;;5074205;28;20095;-69
2021/01/31 06:02:04;;;;;;;30.38;13.55;;;-3271.00;88.60;;;;;;5050418;28;20025;-69
2021/01/31 06:04:29;;;;;;;29.50;13.95;;;-3271.00;88.60;;;;;;5069967;28;20035;-69
2021/01/31 06:07:08;;;;;;;31.20;15.45;;;-3271.00;88.60;;;;;;5081083;28;20033;-68
2021/01/31 06:09:42;;;;;;;32.58;14.95;;;-3271.00;88.50;;;;;;5074463;28;20024;-69
2021/01/31 06:12:21;;;;;;;32.38;15.48;;;-3270.90;88.30;;;;;;5073908;28;20460;-69
2021/01/31 06:15:17;;;;;;;29.08;14.07;;;-3270.90;88.30;;;;;;5064655;28;20371;-68
2021/01/31 06:17:53;;;;;;;28.13;14.20;;;-3270.90;88.60;;;;;;5056157;28;20044;-69
2021/01/31 06:20:29;;;;;;;28.35;14.38;;;-3270.90;88.40;;;;;;5073825;28;20021;-68
2021/01/31 06:22:55;;;;;;;31.80;14.98;;;-3270.90;88.40;;;;;;5072695;28;20171;-68
2021/01/31 06:25:27;;;;;;;30.63;14.40;;;-3270.80;88.30;;;;;;5073449;28;20448;-68
2021/01/31 06:28:20;;;;;;;32.05;16.35;;;-3270.80;88.30;;;;;;5073188;28;20020;-68
2021/01/31 06:30:58;;;;;;;27.10;14.02;;;-3270.80;88.30;;;;;;5067590;28;20397;-68
2021/01/31 06:33:24;;;;;;;30.08;14.10;;;-3270.80;88.40;;;;;;5069888;28;20028;-68
2021/01/31 06:36:14;;;;;;;32.72;14.90;;;-3270.80;88.40;;;;;;5064075;28;20070;-68
2021/01/31 06:39:00;;;;;;;29.15;14.20;;;-3270.70;88.20;;;;;;5072843;28;20553;-70
2021/01/31 06:41:55;;;;;;;29.98;14.38;;;-3270.60;88.20;;;;;;5073066;28;20032;-69
2021/01/31 06:44:42;;;;;;;30.85;13.30;;;-3270.60;88.30;;;;;;5055790;28;20064;-68
2021/01/31 06:47:26;;;;;;;32.88;14.32;;;-3270.60;88.50;;;;;;5073047;28;20052;-69
2021/01/31 06:50:16;;;;;;;28.10;13.57;;;-3270.60;88.60;;;;;;5040234;28;20021;-69
2021/01/31 06:52:44;;;;;;;35.38;16.25;;;-3270.70;88.70;;;;;;5063900;28;20485;-69
2021/01/31 06:55:25;;;;;;;29.65;14.70;;;-3270.70;88.60;;;;;;5073209;28;20021;-69
2021/01/31 06:58:15;;;;;;;30.35;14.85;;;-3270.80;88.70;;;;;;5056795;28;20013;-69
2021/01/31 07:01:08;;;;;;;23.25;10.80;;;-3270.80;88.50;;;;;;5073099;28;20448;-69
2021/01/31 07:03:58;;;;;;;101.88;39.95;;;-3270.80;88.50;;;;;;5072893;28;20304;-68
2021/01/31 07:06:26;;;;;;;35.93;17.20;;;-3270.90;88.80;;;;;;5048609;28;20033;-68
2021/01/31 07:09:46;;;;;;;32.47;16.23;;;-3270.90;88.70;;;;;;5072645;28;20275;-68
2021/01/31 07:12:24;;;;;;;32.38;14.75;;;-3271.00;88.50;;;;;;5017663;28;20029;-68
2021/01/31 07:14:52;;;;;;;35.42;16.45;;;-3271.20;88.80;;;;;;5067112;28;20528;-68
2021/01/31 07:17:34;;;;;;;31.83;15.07;;;-3271.40;88.70;;;;;;5072253;28;20021;-68
2021/01/31 07:20:18;;;;;;;28.63;14.20;;;-3271.60;88.60;;;;;;5057891;28;20025;-68
2021/01/31 07:23:02;;;;;;;31.45;15.20;;;-3272.00;87.70;;;;;;5074176;28;20052;-68
2021/01/31 07:25:45;;;;;;;23.83;13.20;;;-3272.30;87.50;;;;;;5070691;28;20059;-68
2021/01/31 07:28:25;;;;;;;24.92;12.57;;;-3272.80;86.80;;;;;;5072076;28;20025;-68
2021/01/31 07:31:19;;;;;;;22.48;11.27;;;-3273.30;86.20;;;;;;5068777;28;20071;-69
2021/01/31 07:33:54;;;;;;;27.98;13.52;;;-3273.80;84.30;;;;;;5069101;28;20025;-68
2021/01/31 07:36:21;;;;;;;24.42;12.45;;;-3274.10;84.40;;;;;;5068059;28;20027;-69
2021/01/31 07:39:04;;;;;;;26.48;14.40;;;-3274.40;82.80;;;;;;5073240;28;20035;-68
2021/01/31 07:41:31;;;;;;;21.40;11.07;;;-3274.80;81.60;;;;;;5072515;28;20029;-68
2021/01/31 07:44:01;;;;;;;18.30;10.27;;;-3274.80;78.70;;;;;;5074600;28;20029;-69
2021/01/31 07:46:29;;;;;;;16.42;9.70;;;-3275.10;80.20;;;;;;5071771;28;20448;-69
2021/01/31 07:48:56;;;;;;;15.68;9.75;;;-3275.20;78.00;;;;;;5071409;28;20032;-68
2021/01/31 07:51:36;;;;;;;19.20;10.85;;;-3275.50;77.80;;;;;;5070816;28;20028;-70
2021/01/31 07:54:23;;;;;;;18.17;9.55;;;-3276.10;77.70;;;;;;5071071;28;20013;-68
2021/01/31 07:57:12;;;;;;;16.48;9.55;;;-3276.50;74.20;;;;;;5050044;28;20107;-68
2021/01/31 07:59:38;;;;;;;18.20;10.10;;;-3276.20;74.40;;;;;;5070742;28;20020;-68
2021/01/31 08:02:08;;;;;;;15.95;9.75;;;-3276.50;71.80;;;;;;5070935;28;20037;-68
2021/01/31 08:04:34;;;;;;;15.52;8.77;;;0.40;69.40;;;;;;5071291;28;20028;-69
2021/01/31 08:07:02;;;;;;;15.57;9.43;;;0.60;65.40;;;;;;5070422;28;20043;-69
2021/01/31 08:09:27;;;;;;;13.88;8.45;;;0.20;65.90;;;;;;5071371;28;20021;-69
2021/01/31 08:11:57;;;;;;;13.98;8.40;;;0.50;66.40;;;;;;5071591;28;20024;-69
2021/01/31 08:15:00;;;;;;;15.13;8.48;;;0.60;65.20;;;;;;5058690;28;20028;-69
2021/01/31 08:17:38;;;;;;;13.32;9.15;;;0.20;64.90;;;;;;5072076;28;20021;-69
2021/01/31 08:20:29;;;;;;;13.20;9.38;;;0.00;66.70;;;;;;5071677;28;20709;-69
2021/01/31 08:23:00;;;;;;;17.10;10.07;;;0.00;66.80;;;;;;5071503;28;20219;-68
2021/01/31 08:25:28;;;;;;;14.32;8.48;;;-3276.70;67.50;;;;;;5071468;28;20039;-69
2021/01/31 08:27:56;;;;;;;15.27;9.13;;;0.00;66.40;;;;;;5071568;28;20033;-69
2021/01/31 08:30:28;;;;;;;14.27;8.73;;;-3276.70;66.90;;;;;;5055965;28;20032;-69
2021/01/31 08:33:06;;;;;;;16.15;9.15;;;-3276.50;67.50;;;;;;5071175;28;20029;-69
2021/01/31 08:35:43;;;;;;;15.73;9.40;;;-3276.40;67.60;;;;;;5066623;28;20027;-72
2021/01/31 08:38:28;;;;;;;17.27;10.18;;;-3276.00;68.70;;;;;;5070968;28;20543;-70
2021/01/31 08:43:49;;;;;;;17.70;10.18;;;-3275.30;71.00;;;;;;5071259;28;20115;-71
2021/01/31 08:46:30;;;;;;;20.42;10.77;;;-3275.40;71.70;;;;;;5057023;28;20029;-73
2021/01/31 08:49:15;;;;;;;19.02;11.02;;;-3276.00;70.40;;;;;;5071368;28;20501;-72
2021/01/31 08:51:55;;;;;;;20.50;11.23;;;-3276.00;69.90;;;;;;5069224;28;20035;-73
2021/01/31 08:54:22;;;;;;;19.77;11.98;;;-3275.60;69.00;;;;;;5071094;28;20056;-71
2021/01/31 08:56:51;;;;;;;20.05;10.80;;;-3275.40;70.50;;;;;;5071306;28;20078;-75
2021/01/31 08:59:53;;;;;;;16.85;9.25;;;-3275.80;69.70;;;;;;5066065;28;20482;-73
2021/01/31 09:02:24;;;;;;;17.42;10.50;;;-3276.40;67.30;;;;;;4985540;28;20037;-72
2021/01/31 09:04:50;;;;;;;19.02;10.50;;;-3276.30;66.80;;;;;;5073169;28;20501;-72
2021/01/31 09:07:37;;;;;;;18.80;10.98;;;-3276.00;67.40;;;;;;5074747;28;20087;-73
2021/01/31 09:10:07;;;;;;;16.63;9.90;;;-3275.90;68.40;;;;;;5056713;28;20052;-72
2021/01/31 09:12:33;;;;;;;15.80;9.90;;;-3276.10;67.30;;;;;;5071193;28;20071;-72
2021/01/31 09:15:13;;;;;;;17.83;10.82;;;-3276.40;67.50;;;;;;5071358;28;20486;-73
2021/01/31 09:17:40;;;;;;;21.60;10.73;;;-3276.60;66.50;;;;;;5053375;28;20016;-73
2021/01/31 09:20:25;;;;;;;18.63;11.20;;;-3276.60;65.70;;;;;;5070773;28;20020;-73
2021/01/31 09:22:53;;;;;;;19.65;11.55;;;-3276.50;65.70;;;;;;5062257;28;20097;-74
2021/01/31 09:25:21;;;;;;;18.67;10.93;;;-3276.70;65.70;;;;;;5070992;28;20024;-73
2021/01/31 09:28:00;;;;;;;19.00;11.52;;;-3276.60;66.10;;;;;;5043099;28;20482;-72
2021/01/31 09:30:26;;;;;;;20.15;11.38;;;0.00;66.00;;;;;;5070592;28;20024;-73
2021/01/31 09:33:02;;;;;;;17.42;10.93;;;-3276.70;65.20;;;;;;5060273;28;20025;-72
2021/01/31 09:35:33;;;;;;;20.38;10.38;;;0.00;65.90;;;;;;5076113;28;20073;-73
2021/01/31 09:38:18;;;;;;;19.55;10.88;;;-3276.70;65.80;;;;;;5070267;28;20025;-73
2021/01/31 09:40:45;;;;;;;19.42;10.85;;;-3276.50;66.60;;;;;;5060778;28;20021;-73
2021/01/31 09:43:16;;;;;;;18.75;10.90;;;-3276.40;67.00;;;;;;5070772;28;20346;-73
2021/01/31 09:45:46;;;;;;;15.25;8.50;;;-3276.20;66.90;;;;;;5070677;28;20051;-74
2021/01/31 09:48:14;;;;;;;22.27;11.98;;;-3276.00;68.00;;;;;;5056321;28;20417;-72
2021/01/31 09:50:45;;;;;;;19.40;10.85;;;-3276.00;68.30;;;;;;5061870;28;20040;-73
2021/01/31 09:53:37;;;;;;;20.95;12.20;;;-3275.90;68.60;;;;;;5071116;28;20070;-70
2021/01/31 09:56:07;;;;;;;18.50;10.88;;;-3275.90;69.20;;;;;;5069562;28;20586;-68
2021/01/31 09:58:37;;;;;;;20.63;11.98;;;-3275.90;69.10;;;;;;5072845;28;20013;-69
2021/01/31 10:01:12;;;;;;;18.88;10.18;;;-3275.90;69.60;;;;;;5072020;28;20016;-68
2021/01/31 10:03:38;;;;;;;17.45;9.73;;;-3275.80;69.40;;;;;;5054963;28;20041;-68
2021/01/31 10:06:11;;;;;;;20.73;10.93;;;-3275.70;69.70;;;;;;5057773;28;20017;-68
2021/01/31 10:08:42;;;;;;;16.00;9.88;;;-3275.60;70.00;;;;;;5067277;28;20386;-69
2021/01/31 10:11:26;;;;;;;20.92;11.65;;;-3275.50;70.30;;;;;;5073203;28;20432;-69
2021/01/31 10:13:52;;;;;;;18.77;10.70;;;-3275.40;71.30;;;;;;5073430;28;20074;-68
2021/01/31 10:16:20;;;;;;;17.83;8.85;;;-3275.10;71.00;;;;;;5073432;28;20024;-68
2021/01/31 10:18:47;;;;;;;18.95;10.40;;;-3275.10;71.00;;;;;;5072219;28;20017;-68
2021/01/31 10:21:30;;;;;;;17.90;10.48;;;-3275.10;70.60;;;;;;5056222;28;20493;-68
2021/01/31 10:24:13;;;;;;;16.13;10.00;;;-3275.10;71.00;;;;;;5058605;28;20036;-67
2021/01/31 10:26:41;;;;;;;18.08;9.30;;;-3275.10;70.90;;;;;;5073136;28;20550;-68
2021/01/31 10:29:07;;;;;;;15.48;9.27;;;-3275.10;71.20;;;;;;5069069;28;20095;-67
2021/01/31 10:31:37;;;;;;;19.08;9.63;;;-3275.30;70.90;;;;;;5073492;28;20016;-67
2021/01/31 10:34:05;;;;;;;16.65;10.25;;;-3275.30;70.90;;;;;;5074213;28;20070;-68
2021/01/31 10:36:37;;;;;;;18.35;9.68;;;-3275.40;71.20;;;;;;5081156;28;20048;-68
2021/01/31 10:39:08;;;;;;;17.67;10.48;;;-3275.40;70.60;;;;;;5093563;22;20047;-69
2021/01/31 10:41:35;;;;;;;19.60;10.55;;;-3275.50;70.20;;;;;;5090665;28;20024;-69
2021/01/31 10:44:04;;;;;;;17.83;9.88;;;-3275.50;70.20;;;;;;5091099;28;20035;-69
2021/01/31 10:46:34;;;;;;;16.27;9.55;;;-3275.50;70.40;;;;;;5092829;28;20023;-69
2021/01/31 10:48:59;;;;;;;19.55;10.05;;;-3275.60;70.50;;;;;;5085394;28;20024;-69
2021/01/31 10:51:32;;;;;;;21.50;11.38;;;-3275.60;70.30;;;;;;5078302;28;20031;-69
2021/01/31 10:53:59;;;;;;;19.02;10.85;;;-3275.80;70.20;;;;;;5092512;28;20103;-70
2021/01/31 10:56:25;;;;;;;20.98;11.70;;;-3275.70;69.90;;;;;;5092974;28;20412;-70
2021/01/31 10:58:51;;;;;;;18.52;10.73;;;-3275.50;70.20;;;;;;5092617;28;20028;-71
2021/01/31 11:01:17;;;;;;;23.55;11.65;;;-3275.40;70.60;;;;;;5093023;28;20063;-69
2021/01/31 11:03:43;;;;;;;20.73;10.88;;;-3275.30;70.30;;;;;;5092799;28;20020;-73
2021/01/31 11:06:09;;;;;;;15.90;10.15;;;-3275.40;71.70;;;;;;5092831;28;20414;-68
2021/01/31 11:08:34;;;;;;;20.45;11.05;;;-3275.50;70.90;;;;;;5092644;28;20108;-71
2021/01/31 11:11:02;;;;;;;17.95;10.73;;;-3275.40;70.10;;;;;;5092956;28;20028;-68
2021/01/31 11:13:28;;;;;;;18.35;10.32;;;-3275.50;71.50;;;;;;5092875;28;20495;-68
2021/01/31 11:15:54;;;;;;;19.13;10.85;;;-3275.60;71.50;;;;;;5092970;28;20113;-67
2021/01/31 11:18:20;;;;;;;18.35;10.65;;;-3275.80;70.70;;;;;;5092363;28;20024;-66
2021/01/31 11:20:47;;;;;;;15.98;8.73;;;-3275.90;69.50;;;;;;5092623;28;20024;-69
2021/01/31 11:23:13;;;;;;;22.08;12.05;;;-3275.90;68.80;;;;;;5079091;28;20493;-66
2021/01/31 11:25:38;;;;;;;20.90;11.23;;;-3275.90;68.90;;;;;;5092693;28;20081;-68
2021/01/31 11:28:04;;;;;;;23.75;12.05;;;-3275.90;69.50;;;;;;5091902;28;20024;-68
2021/01/31 11:30:30;;;;;;;24.38;13.25;;;-3275.90;70.80;;;;;;5092838;28;20103;-68
2021/01/31 11:33:00;;;;;;;26.02;13.63;;;-3275.90;71.10;;;;;;5092365;28;20093;-68
2021/01/31 11:35:26;;;;;;;18.08;10.98;;;-3276.00;71.60;;;;;;5074083;28;20122;-69
2021/01/31 11:37:54;;;;;;;18.70;10.82;;;-3276.10;71.20;;;;;;5092129;28;20024;-68
2021/01/31 11:40:21;;;;;;;16.48;9.48;;;-3276.10;70.70;;;;;;5092527;28;20024;-68
2021/01/31 11:42:46;;;;;;;17.17;10.13;;;-3276.10;70.00;;;;;;5092300;28;20028;-68
2021/01/31 11:45:13;;;;;;;16.83;10.02;;;-3276.20;69.60;;;;;;5092656;28;20031;-68
2021/01/31 11:47:42;;;;;;;18.10;10.27;;;-3276.00;70.40;;;;;;5089835;28;20020;-69
2021/01/31 11:50:10;;;;;;;18.70;10.40;;;-3275.90;73.00;;;;;;5093224;28;20073;-68
2021/01/31 11:52:36;;;;;;;17.73;10.15;;;-3276.00;74.10;;;;;;5084229;28;20085;-67
2021/01/31 11:55:03;;;;;;;19.50;10.93;;;-3276.00;73.00;;;;;;5092357;28;20024;-68
2021/01/31 11:57:29;;;;;;;17.02;10.40;;;-3275.90;71.30;;;;;;5091821;28;20103;-66
2021/01/31 11:59:54;;;;;;;18.98;10.48;;;-3275.80;71.40;;;;;;5092135;28;20070;-67
2021/01/31 12:02:20;;;;;;;17.92;11.35;;;-3275.80;74.20;;;;;;5078486;28;20028;-68
2021/01/31 12:04:46;;;;;;;17.30;10.23;;;-3275.90;73.70;;;;;;5091841;28;20032;-69
2021/01/31 12:07:11;;;;;;;20.83;11.98;;;-3275.90;75.10;;;;;;5091616;28;20552;-68
2021/01/31 12:09:39;;;;;;;20.90;11.90;;;-3276.00;74.90;;;;;;5091376;28;20032;-68
2021/01/31 12:12:06;;;;;;;16.13;9.50;;;-3276.00;76.10;;;;;;5087677;28;20016;-69
2021/01/31 12:14:32;;;;;;;164.95;74.68;;;-3276.10;75.00;;;;;;5092074;28;20032;-69
2021/01/31 12:16:57;;;;;;;40.58;20.48;;;-3276.00;75.90;;;;;;5091912;28;20405;-69
2021/01/31 12:19:23;;;;;;;17.20;10.02;;;-3276.10;75.80;;;;;;5091733;28;20126;-69
2021/01/31 12:21:50;;;;;;;19.77;11.45;;;-3276.10;75.40;;;;;;5073751;28;20020;-68
2021/01/31 12:24:16;;;;;;;16.95;10.10;;;-3276.00;73.60;;;;;;5091617;28;20417;-65
2021/01/31 12:26:44;;;;;;;18.75;10.65;;;-3275.90;74.30;;;;;;5080286;28;20024;-68
2021/01/31 12:29:13;;;;;;;21.77;11.45;;;-3275.90;75.10;;;;;;5091444;28;20500;-67
2021/01/31 12:31:38;;;;;;;16.52;9.50;;;-3276.10;74.70;;;;;;5091337;28;20034;-68
2021/01/31 12:34:04;;;;;;;16.88;10.15;;;-3276.20;73.20;;;;;;5088005;28;20337;-68
2021/01/31 12:36:29;;;;;;;17.13;9.18;;;-3276.10;72.60;;;;;;5091676;28;20036;-71